VTUV

Details ICAO VTUV (ROI)
Name Roi Et
Region Thailand
Timezone Asia/Bangkok (UTC+7.0)
Plans Departing 9
Arriving 10
Stats Elevation 451 ft / 137 m (AMSL)
Location 16.116760° 103.773798°
Runways 1
Magnetic Variation 0.841° W
Sunrise 2018-05-25 22:34:03 UTC / 2018-05-26 05:34:03 Local
Sunset 2018-05-26 11:32:39 UTC / 2018-05-26 18:32:39 Local
Advertisement - Login to hide

Runways

ID Width Length Bearing (true) Bearing (mag) Surface Threshold Offset Overrun Length
18 148 ft / 45 m 6,939 ft / 2,115 m 182.45° 183.29° Asphalt 0 ft / 0 m 197 ft / 60 m
36 148 ft / 45 m 6,939 ft / 2,115 m 2.45° 3.29° Asphalt 0 ft / 0 m 197 ft / 60 m

Approach Navaids

Runway Type Ident Frequency Range Bearing (true) Bearing (mag) Slope Elevation
36 Localiser IROT 109.50 MHz 18 nm / 33 km 2.45° 3.29° - 448 ft / 137 m (AMSL)
36 Glidescope IROT 109.50 MHz 10 nm / 19 km 2.45° 3.29° 3.00° 451 ft / 137 m (AMSL)
36 DME IROT 109.50 MHz 18 nm / 33 km - - - 448 ft / 137 m (AMSL)

Map

Weather


0- 5 10 15 20 25 30 35+ Temperature / ° C

Clouds and Precipitation
Forecast for 2018-05-26 06:00 UTC. Updated an hour ago

Ground ~20,000 ft ~40,000 ft Winds

METAR

VTUV 260600Z VRB02KT 8000 BKN025 33/26 Q1008 NOSIG

TAF

TAF VTUV 260500Z 2606/2706 20004KT 9000 BKN025 TEMPO 2608/2612 VRB15KT 5000 TSRA FEW018CB BKN020 OVC100

Frequencies

Tower 119.75 MHz TWR
Approach 125.40 MHz APP
Warning: Do not use this data for real-world aviation or navigation. No guarantee of current accuracy is given.